EYPA/PLQ METAR and TAF weather

Enter ICAO airport designator
Station Type Date Time Source
EYPA METAR 2022/07/01 01:50 UTC NOAA

EYPA 010150Z 11006KT 070V140 CAVOK 20/20 Q1015


Station Type Date Time Source
EYPA Decoded METAR 2022/07/01 01:50 UTC NOAA

Palanga Intl., Lithuania (EYPA) 55-55-12N 021-03E
Jun 30, 2022 - 09:50 PM EDT / 2022.07.01 0150 UTC
Wind: from the ESE (110 degrees) at 7 MPH (6 KT) (direction variable):0
Visibility: greater than 7 mile(s):0
Temperature: 68 F (20 C)
Dew Point: 68 F (20 C)
Relative Humidity: 100%
Pressure (altimeter): 29.97 in. Hg (1015 hPa)
ob: EYPA 010150Z 11006KT 070V140 CAVOK 20/20 Q1015
cycle: 2

Station Type Date Time Source
EYPA TAF 2022/06/30 18:03 UTC NOAA

TAF EYPA 301700Z 3018/0118 VRB05KT 9000 SCT040
TEMPO 3019/3024 VRB30KT 3000 TSRA SCT010 BKN030CB
TEMPO 0100/0103 1500 MIFG BR SCT003

Example: see airport list